Time;durP1;ratioP1;P1;durP2;ratioP2;P2;SDS_P1;SDS_P2;PMS_P1;PMS_P2;Temp;Humidity;BMP_temperature;BMP_pressure;BME280_temperature;BME280_humidity;BME280_pressure;Samples;Min_cycle;Max_cycle;Signal;HPM_P1;HPM_P2
2023/08/31 00:00:44;;;;;;;;;;;;;;;16.20;61.01;99855.09;4973980;28;6801;-72
2023/08/31 00:03:10;;;;;;;;;;;;;;;16.18;60.82;99853.34;4971480;28;6858;-73
2023/08/31 00:05:42;;;;;;;;;;;;;;;16.15;60.86;99851.56;4941127;28;7135;-74
2023/08/31 00:08:09;;;;;;;;;;;;;;;16.10;61.06;99851.50;4944061;28;6830;-73
2023/08/31 00:10:36;;;;;;;;;;;;;;;16.04;60.66;99847.94;4974872;28;6788;-73
2023/08/31 00:13:06;;;;;;;;;;;;;;;16.01;60.70;99855.63;4942179;28;7028;-71
2023/08/31 00:15:34;;;;;;;;;;;;;;;15.93;60.95;99851.22;4951755;28;6906;-73
2023/08/31 00:18:00;;;;;;;;;;;;;;;15.87;60.39;99861.41;4958246;28;6884;-73
2023/08/31 00:20:26;;;;;;;;;;;;;;;15.80;60.78;99852.69;4938122;28;7023;-72
2023/08/31 00:22:52;;;;;;;;;;;;;;;15.76;61.01;99856.03;4939157;28;6999;-74
2023/08/31 00:25:18;;;;;;;;;;;;;;;15.71;61.09;99854.22;4943263;28;6939;-73
2023/08/31 00:27:48;;;;;;;;;;;;;;;15.66;61.37;99859.28;4921864;29;6960;-74
2023/08/31 00:30:14;;;;;;;;;;;;;;;15.59;61.01;99868.66;4957734;28;6819;-72
2023/08/31 00:32:42;;;;;;;;;;;;;;;15.55;60.87;99861.69;4959152;28;7190;-73
2023/08/31 00:35:08;;;;;;;;;;;;;;;15.51;60.87;99865.94;4954724;28;6803;-73
2023/08/31 00:37:34;;;;;;;;;;;;;;;15.45;61.10;99860.63;4973537;28;6815;-72
2023/08/31 00:39:59;;;;;;;;;;;;;;;15.40;61.63;99863.13;4948222;28;6799;-72
2023/08/31 00:42:25;;;;;;;;;;;;;;;15.36;61.56;99865.63;4940354;28;6792;-74
2023/08/31 00:44:51;;;;;;;;;;;;;;;15.32;61.32;99864.69;4944700;28;6942;-74
2023/08/31 00:47:17;;;;;;;;;;;;;;;15.30;61.82;99860.31;4942686;28;6870;-73
2023/08/31 00:49:43;;;;;;;;;;;;;;;15.28;61.65;99870.63;4958646;28;6784;-72
2023/08/31 00:52:09;;;;;;;;;;;;;;;15.27;62.41;99867.16;4979216;28;6812;-73
2023/08/31 00:54:35;;;;;;;;;;;;;;;15.26;61.83;99865.44;4980117;28;6922;-72
2023/08/31 00:57:03;;;;;;;;;;;;;;;15.25;62.07;99862.81;4963310;28;6856;-73
2023/08/31 00:59:29;;;;;;;;;;;;;;;15.23;62.36;99860.22;4952136;28;7269;-73
2023/08/31 01:02:21;;;;;;;;;;;;;;;15.22;62.04;99865.34;4941112;28;7328;-73
2023/08/31 01:05:11;;;;;;;;;;;;;;;15.16;61.65;99860.91;4942730;28;7350;-72
2023/08/31 01:07:53;;;;;;;;;;;;;;;15.13;62.08;99861.72;4941810;28;6813;-72
2023/08/31 01:10:29;;;;;;;;;;;;;;;15.09;62.21;99867.69;4947432;28;6824;-72
2023/08/31 01:13:11;;;;;;;;;;;;;;;15.06;62.10;99866.75;4940952;28;7099;-72
2023/08/31 01:15:39;;;;;;;;;;;;;;;15.00;61.60;99867.47;4939694;28;7039;-72
2023/08/31 01:18:08;;;;;;;;;;;;;;;14.96;62.38;99863.97;4944646;28;7209;-72
2023/08/31 01:21:15;;;;;;;;;;;;;;;14.93;62.54;99868.19;4959352;28;6995;-72
2023/08/31 01:23:53;;;;;;;;;;;;;;;14.89;62.11;99866.38;4909638;28;7445;-73
2023/08/31 01:26:20;;;;;;;;;;;;;;;14.85;62.07;99863.72;4943222;28;7123;-72
2023/08/31 01:28:48;;;;;;;;;;;;;;;14.82;62.74;99863.66;4959594;28;6804;-72
2023/08/31 01:31:15;;;;;;;;;;;;;;;14.80;61.86;99860.19;4945898;28;7320;-72
2023/08/31 01:33:41;;;;;;;;;;;;;;;14.77;62.30;99867.81;4923269;28;7177;-72
2023/08/31 01:36:33;;;;;;;;;;;;;;;14.75;62.49;99872.09;4944150;28;7197;-72
2023/08/31 01:39:03;;;;;;;;;;;;;;;14.75;62.74;99866.06;4945472;28;6836;-73
2023/08/31 01:41:35;;;;;;;;;;;;;;;14.74;62.86;99872.94;4948941;28;6931;-72
2023/08/31 01:44:01;;;;;;;;;;;;;;;14.72;62.47;99857.41;4960449;28;6804;-72
2023/08/31 01:46:27;;;;;;;;;;;;;;;14.72;62.86;99857.41;4963109;28;6820;-72
2023/08/31 01:48:53;;;;;;;;;;;;;;;14.73;63.01;99863.44;4960846;28;7200;-72
2023/08/31 01:51:18;;;;;;;;;;;;;;;14.75;63.27;99869.50;4960002;28;6780;-72
2023/08/31 01:53:44;;;;;;;;;;;;;;;14.75;63.19;99859.19;4940116;28;6863;-73
2023/08/31 01:56:10;;;;;;;;;;;;;;;14.77;62.97;99860.09;4944197;28;6964;-72
2023/08/31 01:58:35;;;;;;;;;;;;;;;14.79;63.00;99861.03;4942974;28;6799;-73
2023/08/31 02:01:01;;;;;;;;;;;;;;;14.81;63.25;99853.28;4942393;28;6999;-72
2023/08/31 02:03:26;;;;;;;;;;;;;;;14.80;62.89;99860.19;4938819;28;7056;-73
2023/08/31 02:05:52;;;;;;;;;;;;;;;14.79;62.86;99855.88;4971108;28;7104;-72
2023/08/31 02:08:17;;;;;;;;;;;;;;;14.79;62.61;99852.41;4958053;28;6945;-72
2023/08/31 02:10:44;;;;;;;;;;;;;;;14.78;63.17;99859.28;4961169;28;7003;-73
2023/08/31 02:13:09;;;;;;;;;;;;;;;14.79;62.73;99857.56;4947277;28;6796;-72
2023/08/31 02:15:38;;;;;;;;;;;;;;;14.80;62.78;99860.19;4960148;28;6989;-72
2023/08/31 02:18:04;;;;;;;;;;;;;;;14.81;62.53;99855.88;4975890;28;7503;-73
2023/08/31 02:20:30;;;;;;;;;;;;;;;14.80;62.93;99859.28;4951447;28;6901;-72
2023/08/31 02:22:56;;;;;;;;;;;;;;;14.79;63.01;99868.75;4945923;28;6894;-73
2023/08/31 02:25:21;;;;;;;;;;;;;;;14.79;63.26;99862.72;4969391;28;6784;-73
2023/08/31 02:27:47;;;;;;;;;;;;;;;14.78;62.91;99867.03;4943082;28;6814;-73
2023/08/31 02:30:12;;;;;;;;;;;;;;;14.76;63.14;99873.81;4976553;28;6791;-73
2023/08/31 02:32:38;;;;;;;;;;;;;;;14.76;63.36;99878.13;4946765;28;6945;-72
2023/08/31 02:35:04;;;;;;;;;;;;;;;14.75;62.54;99877.25;4953413;28;6996;-72
2023/08/31 02:37:29;;;;;;;;;;;;;;;14.76;63.16;99872.97;4943379;28;7271;-70
2023/08/31 02:39:55;;;;;;;;;;;;;;;14.77;62.88;99878.16;4960892;28;6864;-69
2023/08/31 02:42:20;;;;;;;;;;;;;;;14.75;63.03;99864.34;4941318;28;6913;-69
2023/08/31 02:44:46;;;;;;;;;;;;;;;14.75;62.70;99877.25;4957194;28;6786;-71
2023/08/31 02:47:11;;;;;;;;;;;;;;;14.74;62.62;99875.50;4945860;28;6795;-69
2023/08/31 02:49:37;;;;;;;;;;;;;;;14.74;62.67;99874.66;4971468;28;6960;-68
2023/08/31 02:52:02;;;;;;;;;;;;;;;14.72;63.06;99875.47;4924799;28;6971;-68
2023/08/31 02:54:28;;;;;;;;;;;;;;;14.74;63.40;99882.41;4943500;28;7186;-68
2023/08/31 02:56:53;;;;;;;;;;;;;;;14.71;63.22;99878.84;4974246;28;7145;-68
2023/08/31 02:59:19;;;;;;;;;;;;;;;14.72;63.24;99883.19;4969601;28;6804;-71
2023/08/31 03:01:46;;;;;;;;;;;;;;;14.72;63.46;99882.31;4958480;28;6791;-70
2023/08/31 03:04:12;;;;;;;;;;;;;;;14.72;63.17;99883.19;4943435;28;6991;-69
2023/08/31 03:06:37;;;;;;;;;;;;;;;14.71;63.03;99883.16;4942744;28;8007;-68
2023/08/31 03:09:03;;;;;;;;;;;;;;;14.70;63.34;99878.84;4942205;28;7183;-69
2023/08/31 03:11:30;;;;;;;;;;;;;;;14.71;62.94;99881.44;4941853;28;7225;-71
2023/08/31 03:13:55;;;;;;;;;;;;;;;14.73;63.54;99886.66;4932987;28;7019;-69
2023/08/31 03:16:21;;;;;;;;;;;;;;;14.76;64.27;99879.00;4965536;28;6983;-68
2023/08/31 03:18:46;;;;;;;;;;;;;;;14.77;63.63;99880.72;4939017;28;7614;-72
2023/08/31 03:21:12;;;;;;;;;;;;;;;14.78;63.63;99882.50;4937917;28;6927;-71
2023/08/31 03:23:37;;;;;;;;;;;;;;;14.80;63.93;99885.97;4958656;28;6780;-68
2023/08/31 03:26:08;;;;;;;;;;;;;;;14.78;63.23;99882.50;4956178;28;6973;-71
2023/08/31 03:28:34;;;;;;;;;;;;;;;14.80;62.99;99882.50;4938352;28;6808;-69
2023/08/31 03:30:59;;;;;;;;;;;;;;;14.79;63.56;99886.81;4942135;28;6780;-71
2023/08/31 03:33:25;;;;;;;;;;;;;;;14.78;63.25;99882.50;4940384;28;6800;-69
2023/08/31 03:35:50;;;;;;;;;;;;;;;14.78;62.96;99885.06;4938649;28;7039;-72
2023/08/31 03:38:16;;;;;;;;;;;;;;;14.78;63.87;99876.44;4953807;28;6880;-68
2023/08/31 03:40:41;;;;;;;;;;;;;;;14.76;63.16;99883.28;4974377;28;6780;-69
2023/08/31 03:43:06;;;;;;;;;;;;;;;14.75;63.16;99887.56;4946628;28;6954;-69
2023/08/31 03:45:32;;;;;;;;;;;;;;;14.74;63.67;99890.13;4942920;28;7000;-69
2023/08/31 03:47:57;;;;;;;;;;;;;;;14.71;62.96;99891.75;4942535;28;6804;-69
2023/08/31 03:50:23;;;;;;;;;;;;;;;14.73;63.03;99889.25;4938571;28;6954;-69
2023/08/31 03:52:48;;;;;;;;;;;;;;;14.74;64.22;99895.28;4947619;28;7313;-68
2023/08/31 03:55:14;;;;;;;;;;;;;;;14.74;63.62;99905.59;4953133;28;7431;-68
2023/08/31 03:57:39;;;;;;;;;;;;;;;14.74;64.13;99900.44;4969793;28;6943;-70
2023/08/31 04:00:08;;;;;;;;;;;;;;;14.75;63.67;99900.47;4939288;28;6970;-69
2023/08/31 04:02:35;;;;;;;;;;;;;;;14.78;64.36;99907.41;4933038;28;7222;-70
2023/08/31 04:05:00;;;;;;;;;;;;;;;14.78;63.88;99904.84;4968895;28;8649;-69
2023/08/31 04:07:26;;;;;;;;;;;;;;;14.79;64.03;99906.56;4934364;28;7256;-72
2023/08/31 04:09:51;;;;;;;;;;;;;;;14.79;63.65;99904.00;4940771;28;6871;-70
2023/08/31 04:12:17;;;;;;;;;;;;;;;14.78;63.83;99907.41;4971418;28;6860;-68
2023/08/31 04:14:42;;;;;;;;;;;;;;;14.78;63.59;99908.28;4975325;28;6784;-71
2023/08/31 04:17:08;;;;;;;;;;;;;;;14.77;63.65;99911.69;4943657;28;7069;-69
2023/08/31 04:19:34;;;;;;;;;;;;;;;14.76;63.67;99915.09;4947580;28;6939;-71
2023/08/31 04:21:59;;;;;;;;;;;;;;;14.75;63.64;99912.50;4974497;28;7064;-69
2023/08/31 04:24:25;;;;;;;;;;;;;;;14.75;64.17;99912.50;4940870;28;7109;-71
2023/08/31 04:26:51;;;;;;;;;;;;;;;14.74;64.74;99909.03;4956122;28;6974;-71
2023/08/31 04:29:16;;;;;;;;;;;;;;;14.76;64.29;99909.09;4945643;28;8104;-69
2023/08/31 04:31:42;;;;;;;;;;;;;;;14.78;64.20;99905.72;4946298;28;6783;-69
2023/08/31 04:34:07;;;;;;;;;;;;;;;14.80;64.23;99909.19;4961583;28;6879;-69
2023/08/31 04:36:33;;;;;;;;;;;;;;;14.83;64.59;99917.00;4975958;28;6783;-69
2023/08/31 04:38:59;;;;;;;;;;;;;;;14.84;64.55;99913.56;4944694;28;6824;-69
2023/08/31 04:41:24;;;;;;;;;;;;;;;14.84;64.13;99911.00;4962455;28;6954;-71
2023/08/31 04:43:50;;;;;;;;;;;;;;;14.84;64.48;99913.56;4938577;28;6804;-69
2023/08/31 04:46:15;;;;;;;;;;;;;;;14.86;64.35;99924.78;4946540;28;6833;-69
2023/08/31 04:48:41;;;;;;;;;;;;;;;14.90;64.24;99923.16;4977181;28;6819;-70
2023/08/31 04:51:09;;;;;;;;;;;;;;;14.91;64.71;99926.63;4944640;28;7305;-70
2023/08/31 04:53:35;;;;;;;;;;;;;;;14.93;64.56;99927.53;4944723;28;6816;-69
2023/08/31 04:56:00;;;;;;;;;;;;;;;14.93;63.85;99922.38;4955615;28;7879;-72
2023/08/31 04:58:26;;;;;;;;;;;;;;;14.95;64.58;99925.84;4949777;28;6829;-69
2023/08/31 05:00:52;;;;;;;;;;;;;;;14.96;64.65;99925.88;4970283;28;7029;-70
2023/08/31 05:03:18;;;;;;;;;;;;;;;15.00;64.67;99932.84;4963017;28;6946;-69
2023/08/31 05:05:43;;;;;;;;;;;;;;;15.03;64.16;99933.78;4947082;28;6791;-70
2023/08/31 05:08:09;;;;;;;;;;;;;;;15.03;64.24;99937.22;4944880;28;6935;-69
2023/08/31 05:10:34;;;;;;;;;;;;;;;15.06;64.70;99944.16;4942874;28;6823;-70
2023/08/31 05:13:01;;;;;;;;;;;;;;;15.09;64.72;99950.25;4967336;28;6864;-69
2023/08/31 05:15:30;;;;;;;;;;;;;;;15.11;64.63;99953.75;4938440;28;7001;-68
2023/08/31 05:17:56;;;;;;;;;;;;;;;15.13;64.18;99952.06;4939783;28;7041;-71
2023/08/31 05:20:23;;;;;;;;;;;;;;;15.15;64.01;99962.44;4957112;28;10665;-71
2023/08/31 05:22:49;;;;;;;;;;;;;;;15.17;64.12;99960.75;4979545;28;6808;-70
2023/08/31 05:25:14;;;;;;;;;;;;;;;15.21;64.17;99972.03;4943139;28;6792;-71
2023/08/31 05:27:40;;;;;;;;;;;;;;;15.26;64.59;99967.84;4967917;28;6784;-69
2023/08/31 05:30:06;;;;;;;;;;;;;;;15.29;64.71;99973.06;4945188;28;6977;-70
2023/08/31 05:32:31;;;;;;;;;;;;;;;15.32;64.79;99967.97;4977948;28;6795;-71
2023/08/31 05:34:59;;;;;;;;;;;;;;;15.38;64.67;99972.38;4961166;28;6795;-69
2023/08/31 05:37:24;;;;;;;;;;;;;;;15.41;64.25;99963.00;4942464;28;6808;-68
2023/08/31 05:39:51;;;;;;;;;;;;;;;15.47;64.83;99971.72;4944654;28;6795;-70
2023/08/31 05:42:16;;;;;;;;;;;;;;;15.50;64.81;99972.66;4936966;28;6808;-69
2023/08/31 05:44:42;;;;;;;;;;;;;;;15.56;64.78;99974.50;4942996;28;6799;-69
2023/08/31 05:47:07;;;;;;;;;;;;;;;15.63;64.81;99984.09;4942580;28;6799;-69
2023/08/31 05:49:33;;;;;;;;;;;;;;;15.68;64.13;99979.03;4942142;28;6880;-68
2023/08/31 05:51:58;;;;;;;;;;;;;;;15.74;64.50;99975.69;4937084;28;6811;-71
2023/08/31 05:54:24;;;;;;;;;;;;;;;15.78;64.46;99982.69;4944602;28;6788;-69
2023/08/31 05:56:49;;;;;;;;;;;;;;;15.85;64.50;99976.78;4970726;28;7275;-68
2023/08/31 05:59:15;;;;;;;;;;;;;;;15.90;64.73;99982.94;4941351;28;6917;-68
2023/08/31 06:01:40;;;;;;;;;;;;;;;15.95;64.38;99989.09;4936728;28;6838;-69
2023/08/31 06:04:06;;;;;;;;;;;;;;;16.01;64.36;99992.63;4957398;28;6864;-71
2023/08/31 06:06:32;;;;;;;;;;;;;;;16.07;64.55;99992.75;4958679;28;6963;-69
2023/08/31 06:08:58;;;;;;;;;;;;;;;16.12;64.25;99993.69;4942655;28;6823;-68
2023/08/31 06:11:23;;;;;;;;;;;;;;;16.18;64.11;99993.81;4943219;28;6946;-71
2023/08/31 06:13:49;;;;;;;;;;;;;;;16.25;64.02;99997.38;4976723;28;6776;-71
2023/08/31 06:16:14;;;;;;;;;;;;;;;16.31;64.51;99999.19;4940344;28;7537;-71
2023/08/31 06:18:40;;;;;;;;;;;;;;;16.37;64.02;100002.78;4940790;28;6792;-68
2023/08/31 06:21:05;;;;;;;;;;;;;;;16.44;64.23;100011.53;4974520;28;6776;-67
2023/08/31 06:23:31;;;;;;;;;;;;;;;16.51;64.07;100009.91;4956553;28;6852;-69
2023/08/31 06:25:56;;;;;;;;;;;;;;;16.56;63.91;100010.84;4941048;28;11707;-67
2023/08/31 06:28:21;;;;;;;;;;;;;;;16.63;63.97;100015.28;4953930;28;7577;-69
2023/08/31 06:30:47;;;;;;;;;;;;;;;16.68;63.91;100007.59;4958160;28;6783;-69
2023/08/31 06:33:17;;;;;;;;;;;;;;;16.76;63.46;100013.78;4943012;28;6919;-69
2023/08/31 06:35:45;;;;;;;;;;;;;;;16.82;63.70;100014.72;4934860;28;7205;-69
2023/08/31 06:38:11;;;;;;;;;;;;;;;16.88;63.43;100014.81;4939477;28;7051;-70
2023/08/31 06:40:36;;;;;;;;;;;;;;;16.94;63.54;100013.19;4939368;28;6973;-70
2023/08/31 06:43:03;;;;;;;;;;;;;;;17.01;63.65;100019.38;4941095;28;6792;-70
2023/08/31 06:45:28;;;;;;;;;;;;;;;17.07;63.35;100021.19;4976609;28;6987;-69
2023/08/31 06:47:54;;;;;;;;;;;;;;;17.11;63.08;100019.53;4936793;28;8118;-70
2023/08/31 06:50:19;;;;;;;;;;;;;;;17.17;62.59;100014.41;4953427;28;6879;-69
2023/08/31 06:52:46;;;;;;;;;;;;;;;17.24;62.85;100016.25;4936610;28;7257;-70
2023/08/31 06:55:12;;;;;;;;;;;;;;;17.31;62.82;100017.22;4938197;28;7219;-73
2023/08/31 06:57:37;;;;;;;;;;;;;;;17.39;62.98;100015.59;4940527;28;6839;-72
2023/08/31 07:00:03;;;;;;;;;;;;;;;17.46;62.87;100016.56;4929965;28;8332;-70
2023/08/31 07:02:29;;;;;;;;;;;;;;;17.51;62.07;100020.09;4948860;28;7204;-71
2023/08/31 07:04:54;;;;;;;;;;;;;;;17.55;61.64;100016.69;4944335;28;7861;-72
2023/08/31 07:07:20;;;;;;;;;;;;;;;17.58;62.17;100019.34;4960608;28;6780;-69
2023/08/31 07:09:47;;;;;;;;;;;;;;;17.64;61.73;100023.72;4942302;28;6796;-71
2023/08/31 07:12:12;;;;;;;;;;;;;;;17.68;62.34;100017.72;4943777;28;7168;-71
2023/08/31 07:14:38;;;;;;;;;;;;;;;17.72;61.78;100021.22;4942980;28;6936;-69
2023/08/31 07:17:03;;;;;;;;;;;;;;;17.76;61.15;100030.75;4946406;28;6805;-73
2023/08/31 07:19:29;;;;;;;;;;;;;;;17.80;61.19;100029.06;4959064;28;6784;-70
2023/08/31 07:21:54;;;;;;;;;;;;;;;17.86;61.44;100029.16;4973264;28;6966;-72
2023/08/31 07:24:21;;;;;;;;;;;;;;;17.91;61.24;100033.56;4941904;28;6971;-71
2023/08/31 07:26:46;;;;;;;;;;;;;;;17.99;61.30;100036.22;4942497;28;6801;-72
2023/08/31 07:29:12;;;;;;;;;;;;;;;18.07;61.05;100040.66;4956428;28;7241;-72
2023/08/31 07:31:37;;;;;;;;;;;;;;;18.13;60.99;100040.75;4942390;28;6784;-71
2023/08/31 07:34:03;;;;;;;;;;;;;;;18.22;60.62;100052.94;4941428;28;7173;-70
2023/08/31 07:36:28;;;;;;;;;;;;;;;18.28;60.99;100046.09;4938759;28;7954;-71
2023/08/31 07:38:54;;;;;;;;;;;;;;;18.37;60.21;100052.22;4942955;28;6951;-70
2023/08/31 07:41:19;;;;;;;;;;;;;;;18.44;60.42;100048.84;4960693;28;6976;-70
2023/08/31 07:43:45;;;;;;;;;;;;;;;18.52;60.74;100046.31;4971788;28;6796;-70
2023/08/31 07:46:10;;;;;;;;;;;;;;;18.61;59.86;100054.19;4954069;28;6843;-72
2023/08/31 07:48:36;;;;;;;;;;;;;;;18.69;59.90;100047.34;4936184;28;7219;-70
2023/08/31 07:51:03;;;;;;;;;;;;;;;18.78;59.93;100050.88;4957470;28;6784;-69
2023/08/31 07:53:28;;;;;;;;;;;;;;;18.83;60.05;100046.59;4941202;28;6953;-71
2023/08/31 07:55:56;;;;;;;;;;;;;;;18.90;59.06;100050.13;4969055;28;7183;-69
2023/08/31 07:58:22;;;;;;;;;;;;;;;18.94;59.23;100052.75;4937338;28;6997;-70
2023/08/31 08:00:47;;;;;;;;;;;;;;;19.04;59.14;100058.06;4955599;28;6972;-70
2023/08/31 08:03:13;;;;;;;;;;;;;;;19.12;58.97;100052.06;4957404;28;6845;-69
2023/08/31 08:05:40;;;;;;;;;;;;;;;19.21;58.97;100056.44;4937057;28;7020;-71
2023/08/31 08:08:05;;;;;;;;;;;;;;;19.31;58.83;100061.69;4940805;28;6929;-71
2023/08/31 08:10:31;;;;;;;;;;;;;;;19.38;58.85;100069.56;4955179;28;6807;-67
2023/08/31 08:12:56;;;;;;;;;;;;;;;19.47;58.85;100063.53;4937488;28;6792;-68
2023/08/31 08:15:22;;;;;;;;;;;;;;;19.55;58.81;100066.16;4936730;28;9895;-67
2023/08/31 08:17:48;;;;;;;;;;;;;;;19.62;58.47;100062.75;4970964;28;6991;-69
2023/08/31 08:20:13;;;;;;;;;;;;;;;19.68;57.90;100062.78;4972768;28;6779;-68
2023/08/31 08:22:39;;;;;;;;;;;;;;;19.77;58.09;100067.16;4940006;28;6949;-70
2023/08/31 08:25:05;;;;;;;;;;;;;;;19.83;57.71;100072.41;4937370;28;7368;-68
2023/08/31 08:27:32;;;;;;;;;;;;;;;19.89;57.55;100075.88;4931585;28;7161;-70
2023/08/31 08:29:58;;;;;;;;;;;;;;;19.95;57.54;100066.41;4936082;28;7084;-69
2023/08/31 08:32:24;;;;;;;;;;;;;;;20.05;57.54;100067.31;4942328;28;7017;-68
2023/08/31 08:34:50;;;;;;;;;;;;;;;20.16;57.82;100069.97;4950164;28;6784;-74
2023/08/31 08:37:16;;;;;;;;;;;;;;;20.30;57.80;100066.50;4953025;28;6808;-69
2023/08/31 08:39:41;;;;;;;;;;;;;;;20.41;57.58;100077.81;4955195;28;6955;-70
2023/08/31 08:42:07;;;;;;;;;;;;;;;20.48;56.96;100074.38;4966376;28;6792;-67
2023/08/31 08:44:36;;;;;;;;;;;;;;;20.52;56.96;100077.84;4940920;28;7052;-68
2023/08/31 08:47:02;;;;;;;;;;;;;;;20.59;56.87;100078.72;4940836;28;6816;-68
2023/08/31 08:49:30;;;;;;;;;;;;;;;20.62;56.40;100090.00;4973990;28;6795;-69
2023/08/31 08:51:56;;;;;;;;;;;;;;;20.66;56.15;100085.69;4972660;28;7132;-68
2023/08/31 08:54:22;;;;;;;;;;;;;;;20.72;56.13;100079.59;4956615;28;6804;-68
2023/08/31 08:56:48;;;;;;;;;;;;;;;20.78;55.98;100077.88;4933878;28;6943;-71
2023/08/31 08:59:14;;;;;;;;;;;;;;;20.89;56.12;100082.25;4939582;28;6783;-69
2023/08/31 09:01:40;;;;;;;;;;;;;;;20.98;55.99;100082.25;4941556;28;6909;-69
2023/08/31 09:04:06;;;;;;;;;;;;;;;21.05;55.41;100084.00;4943170;28;7010;-69
2023/08/31 09:06:32;;;;;;;;;;;;;;;21.17;55.52;100092.66;4942899;28;6851;-68
2023/08/31 09:08:58;;;;;;;;;;;;;;;21.23;55.22;100093.53;4941078;28;6804;-68
2023/08/31 09:11:24;;;;;;;;;;;;;;;21.29;54.85;100099.63;4935558;28;6973;-69
2023/08/31 09:13:51;;;;;;;;;;;;;;;21.34;55.10;100090.91;4941715;28;6984;-71
2023/08/31 09:16:23;;;;;;;;;;;;;;;21.43;54.77;100095.25;4973166;28;6855;-69
2023/08/31 09:18:49;;;;;;;;;;;;;;;21.53;54.76;100090.88;4978179;28;7023;-68
2023/08/31 09:21:14;;;;;;;;;;;;;;;21.62;54.22;100088.25;4943379;28;7232;-69
2023/08/31 09:23:40;;;;;;;;;;;;;;;21.73;54.01;100093.50;4941860;28;6872;-73
2023/08/31 09:26:05;;;;;;;;;;;;;;;21.89;53.94;100086.47;4955378;28;6967;-69
2023/08/31 09:28:32;;;;;;;;;;;;;;;22.02;53.57;100095.13;4960079;28;6961;-68
2023/08/31 09:31:07;;;;;;;;;;;;;;;22.23;53.23;100093.28;4959048;28;6860;-70
2023/08/31 09:33:36;;;;;;;;;;;;;;;22.39;53.50;100087.97;4958546;28;7306;-69
2023/08/31 09:36:03;;;;;;;;;;;;;;;22.61;52.60;100088.72;4947440;28;6815;-68
2023/08/31 09:38:29;;;;;;;;;;;;;;;22.78;52.36;100088.59;4979764;28;7063;-69
2023/08/31 09:41:07;;;;;;;;;;;;;;;23.06;52.33;100091.00;4981001;28;6863;-70
2023/08/31 09:43:32;;;;;;;;;;;;;;;23.52;52.17;100086.25;4978127;28;8171;-70
2023/08/31 09:45:59;;;;;;;;;;;;;;;24.05;51.59;100078.69;4961700;28;6991;-74
2023/08/31 09:48:26;;;;;;;;;;;;;;;24.45;50.11;100089.50;4958786;28;6800;-73
2023/08/31 09:50:52;;;;;;;;;;;;;;;24.91;49.85;100086.19;4977836;28;6800;-70
2023/08/31 09:53:20;;;;;;;;;;;;;;;25.54;49.06;100070.25;4946950;28;7191;-69
2023/08/31 09:55:48;;;;;;;;;;;;;;;26.34;48.03;100073.00;4964641;28;7294;-72
2023/08/31 09:58:17;;;;;;;;;;;;;;;27.16;45.95;100078.03;4948317;28;7024;-70
2023/08/31 10:00:43;;;;;;;;;;;;;;;27.74;44.31;100071.25;4945185;28;6929;-69
2023/08/31 10:03:14;;;;;;;;;;;;;;;28.27;42.39;100069.72;4980900;28;6796;-72
2023/08/31 10:05:39;;;;;;;;;;;;;;;28.30;42.41;100074.03;4957096;28;6808;-70
2023/08/31 10:08:07;;;;;;;;;;;;;;;27.91;42.17;100075.16;4948182;28;6820;-72
2023/08/31 10:10:33;;;;;;;;;;;;;;;27.37;41.92;100085.41;4975063;28;6947;-70
2023/08/31 10:13:00;;;;;;;;;;;;;;;27.28;41.92;100083.88;4979121;28;6788;-69
2023/08/31 10:15:33;;;;;;;;;;;;;;;27.30;42.07;100089.97;4962060;28;6930;-69
2023/08/31 10:18:00;;;;;;;;;;;;;;;27.43;42.01;100085.25;4945379;28;6808;-69
2023/08/31 10:20:28;;;;;;;;;;;;;;;27.63;42.01;100086.50;4945516;28;6796;-72
2023/08/31 10:23:14;;;;;;;;;;;;;;;28.06;41.27;100077.34;4976217;28;6875;-71
2023/08/31 10:25:45;;;;;;;;;;;;;;;28.14;40.52;100075.34;4945111;28;6800;-69
2023/08/31 10:28:22;;;;;;;;;;;;;;;28.47;40.16;100078.75;4948288;28;6788;-73
2023/08/31 10:31:08;;;;;;;;;;;;;;;29.09;38.98;100076.78;4945111;28;6816;-69
2023/08/31 10:33:39;;;;;;;;;;;;;;;29.75;38.83;100073.59;4963877;28;6872;-70
2023/08/31 10:36:18;;;;;;;;;;;;;;;30.43;38.13;100075.41;4964587;28;6804;-69
2023/08/31 10:38:47;;;;;;;;;;;;;;;30.94;36.22;100071.63;4947712;28;6828;-70
2023/08/31 10:41:13;;;;;;;;;;;;;;;30.97;35.64;100068.84;4962196;28;7028;-70
2023/08/31 10:43:54;;;;;;;;;;;;;;;30.74;35.58;100081.25;4945069;28;6867;-71
2023/08/31 10:46:27;;;;;;;;;;;;;;;30.93;35.78;100065.47;4963104;28;7164;-69
2023/08/31 10:49:14;;;;;;;;;;;;;;;31.47;35.20;100072.88;4941268;28;6823;-69
2023/08/31 10:51:42;;;;;;;;;;;;;;;31.82;33.85;100075.75;4943805;28;6824;-69
2023/08/31 10:54:15;;;;;;;;;;;;;;;31.29;33.72;100074.53;4964406;28;6986;-69
2023/08/31 10:57:06;;;;;;;;;;;;;;;30.71;34.41;100076.94;4948551;28;6828;-69
2023/08/31 10:59:52;;;;;;;;;;;;;;;30.56;34.75;100075.78;4944101;28;6904;-68
2023/08/31 11:02:28;;;;;;;;;;;;;;;30.30;34.76;100067.09;4941613;28;7018;-69
2023/08/31 11:04:54;;;;;;;;;;;;;;;30.47;34.90;100062.94;4948395;28;6796;-69
2023/08/31 11:07:24;;;;;;;;;;;;;;;30.95;34.34;100071.53;4943717;28;6923;-70
2023/08/31 11:09:49;;;;;;;;;;;;;;;31.40;33.71;100069.66;4962897;28;6816;-70
2023/08/31 11:12:15;;;;;;;;;;;;;;;31.30;32.83;100069.19;4946628;28;6951;-72
2023/08/31 11:14:41;;;;;;;;;;;;;;;30.51;33.68;100066.31;4943256;28;7172;-70
2023/08/31 11:17:07;;;;;;;;;;;;;;;29.47;33.47;100084.28;4944056;28;6815;-70
2023/08/31 11:19:35;;;;;;;;;;;;;;;28.66;35.36;100079.06;4978791;28;6995;-71
2023/08/31 11:22:04;;;;;;;;;;;;;;;28.54;35.99;100078.53;4946298;28;6800;-70
2023/08/31 11:24:31;;;;;;;;;;;;;;;28.82;36.47;100079.41;4938173;28;7364;-70
2023/08/31 11:26:56;;;;;;;;;;;;;;;29.01;36.13;100078.81;4958542;28;6823;-68
2023/08/31 11:29:22;;;;;;;;;;;;;;;29.34;35.74;100083.81;4976086;28;6800;-69
2023/08/31 11:31:47;;;;;;;;;;;;;;;29.94;35.17;100078.19;4943361;28;6963;-69
2023/08/31 11:34:14;;;;;;;;;;;;;;;30.70;34.80;100071.72;4946380;28;6852;-72
2023/08/31 11:36:45;;;;;;;;;;;;;;;31.06;33.38;100065.81;4960717;28;6800;-70
2023/08/31 11:39:11;;;;;;;;;;;;;;;31.30;33.67;100063.91;4948016;28;6861;-71
2023/08/31 11:41:41;;;;;;;;;;;;;;;31.77;33.03;100063.59;4956549;28;7282;-71
2023/08/31 11:44:12;;;;;;;;;;;;;;;31.82;32.58;100051.91;4975825;28;7042;-70
2023/08/31 11:46:39;;;;;;;;;;;;;;;31.17;32.48;100057.41;4946194;28;6811;-70
2023/08/31 11:49:06;;;;;;;;;;;;;;;30.38;33.00;100058.00;4943556;28;6804;-69
2023/08/31 11:51:37;;;;;;;;;;;;;;;30.17;34.42;100060.59;4935654;28;6820;-70
2023/08/31 11:54:04;;;;;;;;;;;;;;;30.65;34.70;100050.75;4962721;28;6995;-69
2023/08/31 11:56:39;;;;;;;;;;;;;;;31.16;32.91;100048.59;4945452;28;6892;-71
2023/08/31 11:59:14;;;;;;;;;;;;;;;30.98;32.84;100052.03;4944551;28;6870;-69
2023/08/31 12:01:40;;;;;;;;;;;;;;;30.93;32.49;100049.59;4940187;28;6860;-71
2023/08/31 12:04:22;;;;;;;;;;;;;;;31.07;32.23;100051.66;4938404;28;6970;-69
2023/08/31 12:06:50;;;;;;;;;;;;;;;31.42;32.39;100051.91;4957386;28;6947;-68
2023/08/31 12:09:16;;;;;;;;;;;;;;;31.94;31.41;100047.81;4941814;28;6986;-73
2023/08/31 12:11:42;;;;;;;;;;;;;;;32.38;31.00;100051.09;4943456;28;6871;-69
2023/08/31 12:14:27;;;;;;;;;;;;;;;32.52;30.43;100048.59;4943277;28;6859;-70
2023/08/31 12:17:02;;;;;;;;;;;;;;;32.34;29.99;100058.31;4960095;28;7020;-69
2023/08/31 12:19:29;;;;;;;;;;;;;;;32.42;29.87;100064.13;4960553;28;6819;-69
2023/08/31 12:21:55;;;;;;;;;;;;;;;32.77;29.73;100060.66;4939563;28;6860;-69
2023/08/31 12:24:22;;;;;;;;;;;;;;;32.76;29.14;100066.88;4978000;28;6784;-69
2023/08/31 12:26:47;;;;;;;;;;;;;;;32.24;28.89;100063.19;4938073;28;7360;-70
2023/08/31 12:29:13;;;;;;;;;;;;;;;31.57;30.24;100068.03;4960492;28;6788;-70
2023/08/31 12:31:39;;;;;;;;;;;;;;;31.05;29.80;100074.66;4941372;28;8213;-70
2023/08/31 12:34:06;;;;;;;;;;;;;;;30.65;30.97;100076.34;4944644;28;7117;-69
2023/08/31 12:36:32;;;;;;;;;;;;;;;30.61;30.91;100060.59;4940096;28;6808;-69
2023/08/31 12:39:01;;;;;;;;;;;;;;;30.68;31.23;100063.00;4950677;28;6985;-70
2023/08/31 12:41:27;;;;;;;;;;;;;;;30.37;31.30;100061.59;4941752;28;6936;-71
2023/08/31 12:43:53;;;;;;;;;;;;;;;29.66;31.29;100066.00;4965472;28;6984;-71
2023/08/31 12:46:18;;;;;;;;;;;;;;;29.01;32.04;100063.84;4942422;28;6776;-68
2023/08/31 12:48:44;;;;;;;;;;;;;;;28.75;33.31;100068.22;4963030;28;7125;-71
2023/08/31 12:51:10;;;;;;;;;;;;;;;28.79;33.06;100058.41;4978070;28;6792;-68
2023/08/31 12:53:39;;;;;;;;;;;;;;;29.11;32.69;100061.75;4948310;28;6983;-70